Time;durP1;ratioP1;P1;durP2;ratioP2;P2;SDS_P1;SDS_P2;PMS_P1;PMS_P2;Temp;Humidity;BMP_temperature;BMP_pressure;BME280_temperature;BME280_humidity;BME280_pressure;Samples;Min_cycle;Max_cycle;Signal;HPM_P1;HPM_P2
2021/07/22 00:02:11;;;;;;;9.93;8.90;;;;;;;;;;5035583;28;20923;-81
2021/07/22 00:04:37;;;;;;;11.00;8.13;;;;;;;;;;5035258;28;20447;-81
2021/07/22 00:07:03;;;;;;;11.32;8.68;;;;;;;;;;5045198;28;20391;-81
2021/07/22 00:09:29;;;;;;;10.25;8.60;;;;;;;;;;5046746;28;20193;-81
2021/07/22 00:11:55;;;;;;;10.80;8.80;;;;;;;;;;5038866;28;20613;-81
2021/07/22 00:14:21;;;;;;;11.40;9.40;;;;;;;;;;5036821;28;20440;-81
2021/07/22 00:16:47;;;;;;;10.33;8.40;;;;;;;;;;5034961;28;20464;-81
2021/07/22 00:19:13;;;;;;;9.23;8.17;;;;;;;;;;5046987;28;20487;-81
2021/07/22 00:21:39;;;;;;;11.50;8.80;;;;;;;;;;5044388;28;20472;-80
2021/07/22 00:24:06;;;;;;;11.47;8.50;;;;;;;;;;5048228;28;20190;-82
2021/07/22 00:26:32;;;;;;;10.80;8.23;;;;;;;;;;5046584;28;20397;-81
2021/07/22 00:28:58;;;;;;;12.48;9.70;;;;;;;;;;5045041;28;20194;-81
2021/07/22 00:31:24;;;;;;;10.32;8.20;;;;;;;;;;5043118;28;20618;-81
2021/07/22 00:33:50;;;;;;;11.90;8.27;;;;;;;;;;5028216;28;20209;-81
2021/07/22 00:36:17;;;;;;;12.77;9.38;;;;;;;;;;5045892;28;20627;-81
2021/07/22 00:38:43;;;;;;;10.77;8.18;;;;;;;;;;5038894;28;20207;-81
2021/07/22 00:41:12;;;;;;;13.00;8.77;;;;;;;;;;5039353;28;20199;-81
2021/07/22 00:43:39;;;;;;;11.60;8.77;;;;;;;;;;5045287;28;20208;-81
2021/07/22 00:46:05;;;;;;;12.43;8.20;;;;;;;;;;5045614;28;20201;-81
2021/07/22 00:48:32;;;;;;;11.27;8.90;;;;;;;;;;5031200;28;20242;-81
2021/07/22 00:50:58;;;;;;;14.70;9.90;;;;;;;;;;5044805;28;20275;-81
2021/07/22 00:53:23;;;;;;;10.57;8.90;;;;;;;;;;5046779;28;20207;-81
2021/07/22 00:55:49;;;;;;;12.77;9.50;;;;;;;;;;5047079;28;20191;-81
2021/07/22 00:58:15;;;;;;;10.77;8.70;;;;;;;;;;5047483;28;20465;-81
2021/07/22 01:00:42;;;;;;;15.27;8.75;;;;;;;;;;5041254;28;20418;-81
2021/07/22 01:03:08;;;;;;;9.85;8.82;;;;;;;;;;5033718;28;20211;-81
2021/07/22 01:05:34;;;;;;;10.88;9.65;;;;;;;;;;5038515;28;20268;-81
2021/07/22 01:08:00;;;;;;;10.75;8.52;;;;;;;;;;5045740;28;20552;-81
2021/07/22 01:10:26;;;;;;;16.33;9.68;;;;;;;;;;5041492;28;20262;-82
2021/07/22 01:12:52;;;;;;;11.17;8.50;;;;;;;;;;5040527;28;20197;-82
2021/07/22 01:15:18;;;;;;;12.63;9.07;;;;;;;;;;5046016;28;20505;-82
2021/07/22 01:17:44;;;;;;;11.52;9.20;;;;;;;;;;5043665;28;20466;-82
2021/07/22 01:20:11;;;;;;;11.23;9.77;;;;;;;;;;5043662;28;20204;-82
2021/07/22 01:22:37;;;;;;;12.05;8.45;;;;;;;;;;5043589;28;20481;-81
2021/07/22 01:25:04;;;;;;;10.07;8.73;;;;;;;;;;5027250;28;20199;-81
2021/07/22 01:27:30;;;;;;;11.68;9.77;;;;;;;;;;5046560;28;20414;-81
2021/07/22 01:29:56;;;;;;;11.70;9.40;;;;;;;;;;5043868;28;20191;-82
2021/07/22 01:32:22;;;;;;;12.90;8.87;;;;;;;;;;5044181;28;20503;-81
2021/07/22 01:34:48;;;;;;;11.60;9.03;;;;;;;;;;5042427;28;20446;-80
2021/07/22 01:37:14;;;;;;;11.83;9.80;;;;;;;;;;5028673;28;20528;-82
2021/07/22 01:39:40;;;;;;;13.73;9.35;;;;;;;;;;5038743;28;20522;-81
2021/07/22 01:42:06;;;;;;;9.40;8.40;;;;;;;;;;5034875;28;20198;-81
2021/07/22 01:44:32;;;;;;;13.80;9.32;;;;;;;;;;5039376;28;20187;-81
2021/07/22 01:46:59;;;;;;;12.20;9.37;;;;;;;;;;5042486;28;20179;-81
2021/07/22 01:49:25;;;;;;;12.45;10.02;;;;;;;;;;5044807;28;20447;-82
2021/07/22 01:51:51;;;;;;;15.70;9.50;;;;;;;;;;5042894;28;20175;-82
2021/07/22 01:54:17;;;;;;;11.60;8.63;;;;;;;;;;5046276;28;20185;-82
2021/07/22 01:56:43;;;;;;;10.67;8.70;;;;;;;;;;5042332;28;20533;-81
2021/07/22 01:59:09;;;;;;;15.10;10.40;;;;;;;;;;5044823;28;20464;-81
2021/07/22 02:01:35;;;;;;;11.50;9.35;;;;;;;;;;5043295;28;20440;-81
2021/07/22 02:04:01;;;;;;;10.90;9.30;;;;;;;;;;5041845;28;20189;-81
2021/07/22 02:06:27;;;;;;;12.20;10.00;;;;;;;;;;5046478;28;20427;-81
2021/07/22 02:08:53;;;;;;;11.80;8.87;;;;;;;;;;5034485;28;20481;-82
2021/07/22 02:11:19;;;;;;;10.90;9.07;;;;;;;;;;5031840;28;20441;-82
2021/07/22 02:13:45;;;;;;;10.07;8.20;;;;;;;;;;5033106;28;20438;-82
2021/07/22 02:16:11;;;;;;;11.17;9.50;;;;;;;;;;5043101;28;20459;-82
2021/07/22 02:18:37;;;;;;;13.32;9.05;;;;;;;;;;5028776;28;20569;-82
2021/07/22 02:21:06;;;;;;;11.48;9.32;;;;;;;;;;5037734;28;20187;-82
2021/07/22 02:23:33;;;;;;;12.45;9.27;;;;;;;;;;5044247;28;20182;-82
2021/07/22 02:25:59;;;;;;;10.77;9.68;;;;;;;;;;5044299;28;20209;-82
2021/07/22 02:28:25;;;;;;;13.73;9.60;;;;;;;;;;5044257;28;20248;-82
2021/07/22 02:30:51;;;;;;;13.63;9.07;;;;;;;;;;5026986;28;20238;-82
2021/07/22 02:33:16;;;;;;;11.67;10.10;;;;;;;;;;5045926;28;20520;-82
2021/07/22 02:35:42;;;;;;;11.03;7.83;;;;;;;;;;5039139;28;20438;-82
2021/07/22 02:38:08;;;;;;;14.53;9.37;;;;;;;;;;5045556;28;20474;-81
2021/07/22 02:40:34;;;;;;;11.07;9.20;;;;;;;;;;5042619;28;20441;-81
2021/07/22 02:43:00;;;;;;;12.18;8.85;;;;;;;;;;5025780;28;20437;-82
2021/07/22 02:45:26;;;;;;;9.90;8.90;;;;;;;;;;5031931;28;20186;-82
2021/07/22 02:47:52;;;;;;;11.10;8.73;;;;;;;;;;5033648;28;20434;-81
2021/07/22 02:50:18;;;;;;;12.77;9.27;;;;;;;;;;5035668;28;20520;-82
2021/07/22 02:52:44;;;;;;;12.23;9.25;;;;;;;;;;5037903;28;20453;-81
2021/07/22 02:55:11;;;;;;;13.43;9.33;;;;;;;;;;5043229;28;20177;-82
2021/07/22 02:57:37;;;;;;;10.65;8.85;;;;;;;;;;5044180;28;20414;-81
2021/07/22 03:00:03;;;;;;;13.43;10.13;;;;;;;;;;5029879;28;20213;-82
2021/07/22 03:02:29;;;;;;;11.25;8.70;;;;;;;;;;5031009;28;20795;-81
2021/07/22 03:04:55;;;;;;;12.15;10.18;;;;;;;;;;5031584;28;20178;-81
2021/07/22 03:07:21;;;;;;;12.73;9.32;;;;;;;;;;5030093;28;20197;-81
2021/07/22 03:09:47;;;;;;;12.33;9.57;;;;;;;;;;5029753;28;20170;-81
2021/07/22 03:12:13;;;;;;;10.52;8.95;;;;;;;;;;5051440;28;20723;-81
2021/07/22 03:14:39;;;;;;;14.57;11.03;;;;;;;;;;5043697;28;20427;-81
2021/07/22 03:17:05;;;;;;;12.50;10.00;;;;;;;;;;5046908;28;20499;-81
2021/07/22 03:19:31;;;;;;;13.98;10.25;;;;;;;;;;5048994;28;21015;-81
2021/07/22 03:21:57;;;;;;;10.50;9.38;;;;;;;;;;5045710;28;20223;-81
2021/07/22 03:24:25;;;;;;;11.03;9.17;;;;;;;;;;5049887;28;20174;-82
2021/07/22 03:26:51;;;;;;;15.00;9.60;;;;;;;;;;5046042;28;20457;-81
2021/07/22 03:29:17;;;;;;;11.32;8.75;;;;;;;;;;5042224;28;20342;-82
2021/07/22 03:31:43;;;;;;;12.82;9.80;;;;;;;;;;5036236;28;20186;-81
2021/07/22 03:34:09;;;;;;;15.05;10.60;;;;;;;;;;5046077;28;20190;-81
2021/07/22 03:36:35;;;;;;;11.02;9.40;;;;;;;;;;5032138;28;20179;-82
2021/07/22 03:39:01;;;;;;;12.05;9.32;;;;;;;;;;5045274;28;20206;-82
2021/07/22 03:41:27;;;;;;;12.95;9.68;;;;;;;;;;5047605;28;20178;-82
2021/07/22 03:43:53;;;;;;;14.37;9.73;;;;;;;;;;5047019;28;20291;-81
2021/07/22 03:46:19;;;;;;;12.20;10.00;;;;;;;;;;5043499;28;20468;-81
2021/07/22 03:48:45;;;;;;;12.07;9.73;;;;;;;;;;5045680;28;20439;-81
2021/07/22 03:51:11;;;;;;;13.20;9.10;;;;;;;;;;5036340;28;20456;-82
2021/07/22 03:53:37;;;;;;;10.32;8.30;;;;;;;;;;5037674;28;20352;-82
2021/07/22 03:56:03;;;;;;;14.77;9.30;;;;;;;;;;5035758;28;20193;-82
2021/07/22 03:58:29;;;;;;;11.30;10.02;;;;;;;;;;5044037;28;20461;-82
2021/07/22 04:00:57;;;;;;;12.93;9.50;;;;;;;;;;5030185;28;20225;-82
2021/07/22 04:03:26;;;;;;;14.50;9.60;;;;;;;;;;5031898;28;20464;-82
2021/07/22 04:05:52;;;;;;;13.10;9.48;;;;;;;;;;5042737;28;20602;-82
2021/07/22 04:08:18;;;;;;;10.32;9.20;;;;;;;;;;5046344;28;20177;-82
2021/07/22 04:10:45;;;;;;;12.43;9.43;;;;;;;;;;5046415;28;20182;-82
2021/07/22 04:13:11;;;;;;;12.98;9.23;;;;;;;;;;5044464;28;20444;-82
2021/07/22 04:15:37;;;;;;;11.17;7.60;;;;;;;;;;5044545;28;20176;-81
2021/07/22 04:18:03;;;;;;;12.18;9.25;;;;;;;;;;5047342;28;20480;-81
2021/07/22 04:20:29;;;;;;;11.02;9.02;;;;;;;;;;5040374;28;20178;-82
2021/07/22 04:22:57;;;;;;;11.83;9.80;;;;;;;;;;5037740;28;20182;-82
2021/07/22 04:25:24;;;;;;;11.50;9.30;;;;;;;;;;5047304;28;20434;-82
2021/07/22 04:27:50;;;;;;;14.60;10.02;;;;;;;;;;5043698;28;20170;-82
2021/07/22 04:30:15;;;;;;;10.67;9.57;;;;;;;;;;5047935;28;20181;-82
2021/07/22 04:32:42;;;;;;;11.00;9.57;;;;;;;;;;5047494;28;20428;-82
2021/07/22 04:35:08;;;;;;;11.63;8.85;;;;;;;;;;5046470;28;20474;-81
2021/07/22 04:37:37;;;;;;;12.10;9.38;;;;;;;;;;5044451;28;20179;-81
2021/07/22 04:40:06;;;;;;;14.63;10.85;;;;;;;;;;5028601;28;20202;-82
2021/07/22 04:42:32;;;;;;;11.93;9.27;;;;;;;;;;5047101;28;20173;-81
2021/07/22 04:44:58;;;;;;;9.60;8.57;;;;;;;;;;5044464;28;20189;-82
2021/07/22 04:47:24;;;;;;;12.97;9.50;;;;;;;;;;5047204;28;20245;-82
2021/07/22 04:49:50;;;;;;;12.27;9.55;;;;;;;;;;5045168;28;20474;-81
2021/07/22 04:52:16;;;;;;;13.17;9.90;;;;;;;;;;5046231;28;20185;-81
2021/07/22 04:54:42;;;;;;;12.70;9.27;;;;;;;;;;5044400;28;20600;-82
2021/07/22 04:57:08;;;;;;;13.07;9.33;;;;;;;;;;5045956;28;20201;-82
2021/07/22 04:59:34;;;;;;;12.60;9.87;;;;;;;;;;5047920;28;20491;-82
2021/07/22 05:02:00;;;;;;;10.82;9.10;;;;;;;;;;5045590;28;20460;-82
2021/07/22 05:04:26;;;;;;;13.77;8.73;;;;;;;;;;5026425;28;20179;-82
2021/07/22 05:06:52;;;;;;;12.93;8.73;;;;;;;;;;5041274;28;20440;-82
2021/07/22 05:09:18;;;;;;;12.67;9.80;;;;;;;;;;5047398;28;20412;-82
2021/07/22 05:11:44;;;;;;;13.52;9.30;;;;;;;;;;5046225;28;20973;-82
2021/07/22 05:14:10;;;;;;;11.45;9.90;;;;;;;;;;5044032;28;20276;-82
2021/07/22 05:16:36;;;;;;;12.43;9.15;;;;;;;;;;5045785;28;20181;-82
2021/07/22 05:19:02;;;;;;;13.57;10.48;;;;;;;;;;5044022;28;20317;-82
2021/07/22 05:21:28;;;;;;;10.43;9.30;;;;;;;;;;5032265;28;20238;-82
2021/07/22 05:23:54;;;;;;;13.77;9.80;;;;;;;;;;5043075;28;20436;-82
2021/07/22 05:26:20;;;;;;;11.73;9.63;;;;;;;;;;5045771;28;20443;-81
2021/07/22 05:28:46;;;;;;;10.68;9.02;;;;;;;;;;5043593;28;20434;-82
2021/07/22 05:31:12;;;;;;;13.07;9.40;;;;;;;;;;5045356;28;20296;-82
2021/07/22 05:33:39;;;;;;;13.23;9.82;;;;;;;;;;5029920;28;20530;-82
2021/07/22 05:36:06;;;;;;;11.05;9.35;;;;;;;;;;5044556;28;20198;-81
2021/07/22 05:38:32;;;;;;;11.48;9.23;;;;;;;;;;5046572;28;20209;-82
2021/07/22 05:40:59;;;;;;;12.40;8.77;;;;;;;;;;5044560;28;20183;-82
2021/07/22 05:43:26;;;;;;;10.43;9.20;;;;;;;;;;5041162;28;20235;-82
2021/07/22 05:45:52;;;;;;;14.55;10.00;;;;;;;;;;5043269;28;20260;-81
2021/07/22 05:48:18;;;;;;;14.10;10.30;;;;;;;;;;5045496;28;20183;-82
2021/07/22 05:50:44;;;;;;;10.97;9.83;;;;;;;;;;5046618;28;20435;-82
2021/07/22 05:53:10;;;;;;;14.80;9.80;;;;;;;;;;5043575;28;20453;-82
2021/07/22 05:55:36;;;;;;;12.17;8.73;;;;;;;;;;5042372;28;20505;-81
2021/07/22 05:58:02;;;;;;;15.45;10.07;;;;;;;;;;5028662;28;20496;-82
2021/07/22 06:00:28;;;;;;;11.50;9.03;;;;;;;;;;5029589;28;20216;-82
2021/07/22 06:02:54;;;;;;;14.10;10.33;;;;;;;;;;5043895;28;20474;-82
2021/07/22 06:05:20;;;;;;;11.40;9.60;;;;;;;;;;5046157;28;20428;-82
2021/07/22 06:07:46;;;;;;;11.93;9.45;;;;;;;;;;5045552;28;20505;-81
2021/07/22 06:10:13;;;;;;;11.40;8.65;;;;;;;;;;5026900;28;20546;-82
2021/07/22 06:12:39;;;;;;;10.43;8.90;;;;;;;;;;5027602;28;20176;-82
2021/07/22 06:15:06;;;;;;;11.75;9.75;;;;;;;;;;5043767;28;20197;-82
2021/07/22 06:17:34;;;;;;;15.23;9.45;;;;;;;;;;5045201;28;20231;-81
2021/07/22 06:20:00;;;;;;;13.95;9.38;;;;;;;;;;5043513;28;20202;-82
2021/07/22 06:22:26;;;;;;;15.27;10.98;;;;;;;;;;5044302;28;20232;-81
2021/07/22 06:24:52;;;;;;;14.77;9.63;;;;;;;;;;5042134;28;20171;-82
2021/07/22 06:27:18;;;;;;;13.20;10.43;;;;;;;;;;5044819;28;20425;-82
2021/07/22 06:29:44;;;;;;;12.10;10.10;;;;;;;;;;5036937;28;20439;-81
2021/07/22 06:32:10;;;;;;;14.83;9.40;;;;;;;;;;5043119;28;20531;-81
2021/07/22 06:34:36;;;;;;;11.80;9.97;;;;;;;;;;5043385;28;20980;-81
2021/07/22 06:37:02;;;;;;;16.83;10.00;;;;;;;;;;5026547;28;20425;-81
2021/07/22 06:39:32;;;;;;;11.25;8.68;;;;;;;;;;5030358;28;20461;-81
2021/07/22 06:41:59;;;;;;;14.20;10.27;;;;;;;;;;5040665;28;20192;-81
2021/07/22 06:44:25;;;;;;;12.70;9.90;;;;;;;;;;5038725;28;20249;-81
2021/07/22 06:46:51;;;;;;;12.25;10.27;;;;;;;;;;5042825;28;20209;-82
2021/07/22 06:49:17;;;;;;;13.27;9.10;;;;;;;;;;5044080;28;20212;-81
2021/07/22 06:51:43;;;;;;;10.27;8.17;;;;;;;;;;5035485;28;20504;-81
2021/07/22 06:54:10;;;;;;;11.30;8.80;;;;;;;;;;5044873;28;20885;-81
2021/07/22 06:56:36;;;;;;;12.43;10.67;;;;;;;;;;5042737;28;20417;-81
2021/07/22 06:59:02;;;;;;;10.87;8.40;;;;;;;;;;5040118;28;20551;-81
2021/07/22 07:01:28;;;;;;;10.53;9.03;;;;;;;;;;5031670;28;20427;-81
2021/07/22 07:03:54;;;;;;;10.90;8.43;;;;;;;;;;5026535;28;20444;-81
2021/07/22 07:06:20;;;;;;;14.40;9.80;;;;;;;;;;5031796;28;20976;-81
2021/07/22 07:08:46;;;;;;;14.40;9.70;;;;;;;;;;5040880;28;20448;-81
2021/07/22 07:11:12;;;;;;;11.83;8.40;;;;;;;;;;5042606;28;20428;-81
2021/07/22 07:13:38;;;;;;;11.13;7.80;;;;;;;;;;5043788;28;20950;-82
2021/07/22 07:16:05;;;;;;;11.00;8.60;;;;;;;;;;5026374;28;20545;-82
2021/07/22 07:18:31;;;;;;;11.27;8.73;;;;;;;;;;5043570;28;20492;-81
2021/07/22 07:20:57;;;;;;;9.03;7.97;;;;;;;;;;5034440;28;20463;-82
2021/07/22 07:23:23;;;;;;;10.97;8.60;;;;;;;;;;5035500;28;21323;-82
2021/07/22 07:25:49;;;;;;;14.43;9.23;;;;;;;;;;5045256;28;20433;-82
2021/07/22 07:28:15;;;;;;;11.90;9.80;;;;;;;;;;5041994;28;20435;-81
2021/07/22 07:30:43;;;;;;;10.40;8.60;;;;;;;;;;5027515;28;20420;-82
2021/07/22 07:33:09;;;;;;;11.83;9.77;;;;;;;;;;5043499;28;20497;-82
2021/07/22 07:35:35;;;;;;;10.60;8.33;;;;;;;;;;5042391;28;20434;-81
2021/07/22 07:38:01;;;;;;;16.67;8.70;;;;;;;;;;5041075;28;20830;-81
2021/07/22 07:40:27;;;;;;;14.93;9.40;;;;;;;;;;5031611;28;20961;-82
2021/07/22 07:42:53;;;;;;;10.73;8.50;;;;;;;;;;5041605;28;20395;-81
2021/07/22 07:45:19;;;;;;;11.23;9.10;;;;;;;;;;5031728;28;20437;-81
2021/07/22 07:47:45;;;;;;;15.20;10.30;;;;;;;;;;5041694;28;20478;-82
2021/07/22 07:50:12;;;;;;;11.67;8.90;;;;;;;;;;5043467;28;20440;-81
2021/07/22 07:52:39;;;;;;;12.30;10.00;;;;;;;;;;5043139;28;20524;-82
2021/07/22 07:55:05;;;;;;;13.90;9.70;;;;;;;;;;5028388;28;20975;-81
2021/07/22 07:57:32;;;;;;;12.40;9.27;;;;;;;;;;5032631;28;20392;-80
2021/07/22 07:59:58;;;;;;;13.23;9.43;;;;;;;;;;5035815;28;20466;-82
2021/07/22 08:02:24;;;;;;;11.83;8.30;;;;;;;;;;5035902;28;20928;-81
2021/07/22 08:04:50;;;;;;;8.40;7.50;;;;;;;;;;5033881;28;20440;-81
2021/07/22 08:07:16;;;;;;;11.90;8.30;;;;;;;;;;5045980;28;20421;-81
2021/07/22 08:09:44;;;;;;;10.83;8.70;;;;;;;;;;5049289;28;20429;-80
2021/07/22 08:12:10;;;;;;;11.60;8.30;;;;;;;;;;5047091;28;20449;-81
2021/07/22 08:14:39;;;;;;;9.90;7.83;;;;;;;;;;5036496;28;20409;-80
2021/07/22 08:17:06;;;;;;;9.73;8.20;;;;;;;;;;5034973;28;20457;-81
2021/07/22 08:19:32;;;;;;;12.50;9.20;;;;;;;;;;5032516;28;20464;-81
2021/07/22 08:21:58;;;;;;;10.43;8.50;;;;;;;;;;5029598;28;20406;-81
2021/07/22 08:24:24;;;;;;;10.40;7.90;;;;;;;;;;5040516;28;20425;-80
2021/07/22 08:26:50;;;;;;;9.63;7.97;;;;;;;;;;5039136;28;20404;-81
2021/07/22 08:29:16;;;;;;;10.30;9.20;;;;;;;;;;5039222;28;20433;-81
2021/07/22 08:31:42;;;;;;;11.90;8.20;;;;;;;;;;5047540;28;20483;-81
2021/07/22 08:34:09;;;;;;;16.53;9.80;;;;;;;;;;5044886;28;20416;-81
2021/07/22 08:36:35;;;;;;;8.03;7.20;;;;;;;;;;5031218;28;20395;-81
2021/07/22 08:39:01;;;;;;;11.57;6.93;;;;;;;;;;5036100;28;20500;-81
2021/07/22 08:41:27;;;;;;;11.60;7.57;;;;;;;;;;5038979;28;20782;-81
2021/07/22 08:43:53;;;;;;;8.20;7.30;;;;;;;;;;5045075;28;20408;-82
2021/07/22 08:46:19;;;;;;;8.10;7.30;;;;;;;;;;5047077;28;20413;-81
2021/07/22 08:48:45;;;;;;;7.97;6.40;;;;;;;;;;5043912;28;20499;-81
2021/07/22 08:51:11;;;;;;;8.97;7.30;;;;;;;;;;5034585;28;20415;-82
2021/07/22 08:53:37;;;;;;;12.63;7.13;;;;;;;;;;5041719;28;20407;-81
2021/07/22 08:56:06;;;;;;;10.03;7.30;;;;;;;;;;5047342;28;20534;-81
2021/07/22 08:58:32;;;;;;;10.73;7.73;;;;;;;;;;5045768;28;20450;-82
2021/07/22 09:01:01;;;;;;;7.93;7.13;;;;;;;;;;5044019;28;20489;-81
2021/07/22 09:03:27;;;;;;;8.10;7.30;;;;;;;;;;5038471;28;20416;-82
2021/07/22 09:05:53;;;;;;;9.63;8.53;;;;;;;;;;5043603;28;20435;-81
2021/07/22 09:08:19;;;;;;;8.13;7.10;;;;;;;;;;5046921;28;20466;-81
2021/07/22 09:11:04;;;;;;;11.40;8.87;;;;;;;;;;5044614;28;20431;-81
2021/07/22 09:13:30;;;;;;;8.37;7.57;;;;;;;;;;5031869;28;20431;-81
2021/07/22 09:15:56;;;;;;;8.00;7.20;;;;;;;;;;5039527;28;20432;-81
2021/07/22 09:18:23;;;;;;;9.13;8.23;;;;;;;;;;5043136;28;20488;-81
2021/07/22 09:20:49;;;;;;;9.90;7.77;;;;;;;;;;5036134;28;20427;-82
2021/07/22 09:23:20;;;;;;;8.67;7.70;;;;;;;;;;5034099;28;20407;-81
2021/07/22 09:25:47;;;;;;;9.90;7.80;;;;;;;;;;5033858;28;20781;-81
2021/07/22 09:28:17;;;;;;;9.63;7.40;;;;;;;;;;5046148;28;20435;-82
2021/07/22 09:31:03;;;;;;;8.00;7.00;;;;;;;;;;5040667;28;20598;-81
2021/07/22 09:33:35;;;;;;;9.13;8.00;;;;;;;;;;5057305;28;20430;-82
2021/07/22 09:36:01;;;;;;;9.60;7.40;;;;;;;;;;5035547;28;20399;-82
2021/07/22 09:38:28;;;;;;;7.97;7.13;;;;;;;;;;5040285;28;20498;-81
2021/07/22 09:40:54;;;;;;;7.67;6.87;;;;;;;;;;5044628;28;20422;-83
2021/07/22 09:43:40;;;;;;;8.10;7.30;;;;;;;;;;5031130;28;20444;-82
2021/07/22 09:46:06;;;;;;;8.70;7.50;;;;;;;;;;5043376;28;20502;-82
2021/07/22 09:48:32;;;;;;;8.80;8.00;;;;;;;;;;5045083;28;20517;-82
2021/07/22 09:50:58;;;;;;;9.80;8.10;;;;;;;;;;5034234;28;20448;-82
2021/07/22 09:53:27;;;;;;;10.27;7.63;;;;;;;;;;5039053;28;20434;-82
2021/07/22 09:55:54;;;;;;;10.43;8.20;;;;;;;;;;5042720;28;20468;-82
2021/07/22 09:58:20;;;;;;;8.50;7.50;;;;;;;;;;5041284;28;20438;-83
2021/07/22 10:00:55;;;;;;;12.30;8.73;;;;;;;;;;5027663;28;20424;-84
2021/07/22 10:03:22;;;;;;;9.20;8.27;;;;;;;;;;5041616;28;20433;-82
2021/07/22 10:05:58;;;;;;;9.13;8.33;;;;;;;;;;5044665;28;20515;-82
2021/07/22 10:08:26;;;;;;;7.60;6.90;;;;;;;;;;5045782;28;20470;-83
2021/07/22 10:10:52;;;;;;;8.87;8.07;;;;;;;;;;5045281;28;21308;-82
2021/07/22 10:13:23;;;;;;;10.87;8.20;;;;;;;;;;5043575;28;20433;-81
2021/07/22 10:15:50;;;;;;;7.20;6.50;;;;;;;;;;5028356;28;20392;-81
2021/07/22 10:18:21;;;;;;;8.27;7.47;;;;;;;;;;5046482;28;20465;-81
2021/07/22 10:20:49;;;;;;;8.60;7.70;;;;;;;;;;5042241;28;20459;-81
2021/07/22 10:23:15;;;;;;;8.17;7.37;;;;;;;;;;5043921;28;20441;-81
2021/07/22 10:25:42;;;;;;;9.77;7.27;;;;;;;;;;5043500;28;20444;-81
2021/07/22 10:28:08;;;;;;;8.57;7.77;;;;;;;;;;5045347;28;20920;-82
2021/07/22 10:30:35;;;;;;;7.13;6.43;;;;;;;;;;5027716;28;20462;-80
2021/07/22 10:33:03;;;;;;;8.27;7.27;;;;;;;;;;5033020;28;20431;-82
2021/07/22 10:35:31;;;;;;;7.27;6.57;;;;;;;;;;5037409;28;20436;-81
2021/07/22 10:38:04;;;;;;;8.27;7.57;;;;;;;;;;5043524;28;20474;-81
2021/07/22 10:40:44;;;;;;;7.97;7.20;;;;;;;;;;5044175;28;20519;-80
2021/07/22 10:43:30;;;;;;;8.63;7.40;;;;;;;;;;5042832;28;20450;-80
2021/07/22 10:45:56;;;;;;;11.10;7.23;;;;;;;;;;5039672;28;20425;-81
2021/07/22 10:48:26;;;;;;;7.10;6.20;;;;;;;;;;5037603;28;20468;-82
2021/07/22 10:50:55;;;;;;;7.50;6.80;;;;;;;;;;5042651;28;20440;-81
2021/07/22 10:53:36;;;;;;;9.00;7.20;;;;;;;;;;5042936;28;20440;-83
2021/07/22 10:56:03;;;;;;;7.93;7.23;;;;;;;;;;5045617;28;20444;-82
2021/07/22 10:58:35;;;;;;;7.80;7.10;;;;;;;;;;5045263;28;20525;-81
2021/07/22 11:01:01;;;;;;;7.07;6.47;;;;;;;;;;5041875;28;20416;-81
2021/07/22 11:03:34;;;;;;;7.10;6.53;;;;;;;;;;5040296;28;20412;-82
2021/07/22 11:06:00;;;;;;;6.87;6.20;;;;;;;;;;5035755;28;20417;-82
2021/07/22 11:08:28;;;;;;;7.33;6.40;;;;;;;;;;5036629;28;20429;-82
2021/07/22 11:10:55;;;;;;;6.90;6.20;;;;;;;;;;5045255;28;20431;-82
2021/07/22 11:13:33;;;;;;;6.63;6.13;;;;;;;;;;5045130;28;20447;-82
2021/07/22 11:16:01;;;;;;;7.13;6.53;;;;;;;;;;5043015;28;20444;-82
2021/07/22 11:18:43;;;;;;;7.77;7.10;;;;;;;;;;5044873;28;20471;-82
2021/07/22 11:21:09;;;;;;;7.57;6.30;;;;;;;;;;5034121;28;20433;-82
2021/07/22 11:23:36;;;;;;;6.90;6.30;;;;;;;;;;5033299;28;20441;-81
2021/07/22 11:26:02;;;;;;;6.77;6.17;;;;;;;;;;5032689;28;20437;-83
2021/07/22 11:28:28;;;;;;;6.73;6.13;;;;;;;;;;5030888;28;20443;-82
2021/07/22 11:31:10;;;;;;;6.67;6.07;;;;;;;;;;5030447;28;20415;-82
2021/07/22 11:33:39;;;;;;;5.80;5.30;;;;;;;;;;5047117;28;20520;-81
2021/07/22 11:36:07;;;;;;;7.13;6.43;;;;;;;;;;5048025;28;20499;-82
2021/07/22 11:38:34;;;;;;;6.37;5.77;;;;;;;;;;5048767;28;20485;-82
2021/07/22 11:41:00;;;;;;;7.40;6.70;;;;;;;;;;5045914;28;20433;-81
2021/07/22 11:43:32;;;;;;;7.37;5.87;;;;;;;;;;5047891;28;20447;-82
2021/07/22 11:45:58;;;;;;;6.67;6.07;;;;;;;;;;5029261;28;20469;-82
2021/07/22 11:48:24;;;;;;;7.40;6.50;;;;;;;;;;5042981;28;20416;-82
2021/07/22 11:51:00;;;;;;;6.87;6.17;;;;;;;;;;5045749;28;20424;-81
2021/07/22 11:53:26;;;;;;;8.30;6.83;;;;;;;;;;5049334;28;20452;-82
2021/07/22 11:55:52;;;;;;;8.87;6.93;;;;;;;;;;5047785;28;20444;-81
2021/07/22 11:58:18;;;;;;;7.40;6.67;;;;;;;;;;5044031;28;20771;-81
2021/07/22 12:00:44;;;;;;;7.33;6.63;;;;;;;;;;5031225;28;20417;-81
2021/07/22 12:03:11;;;;;;;8.53;7.23;;;;;;;;;;5044736;28;20440;-83
2021/07/22 12:05:37;;;;;;;7.10;6.43;;;;;;;;;;5045439;28;20454;-81
2021/07/22 12:08:20;;;;;;;7.00;6.30;;;;;;;;;;5045281;28;20433;-81
2021/07/22 12:10:47;;;;;;;6.77;6.10;;;;;;;;;;5037121;28;20467;-81
2021/07/22 12:13:13;;;;;;;7.30;6.60;;;;;;;;;;5044876;28;20458;-81
2021/07/22 12:15:40;;;;;;;7.53;6.93;;;;;;;;;;5031365;28;20425;-81
2021/07/22 12:18:06;;;;;;;8.90;8.10;;;;;;;;;;5044529;28;20483;-80
2021/07/22 12:20:33;;;;;;;6.03;5.53;;;;;;;;;;5048250;28;20457;-81
2021/07/22 12:22:59;;;;;;;6.80;6.10;;;;;;;;;;5047902;28;20434;-81
2021/07/22 12:25:28;;;;;;;6.10;5.50;;;;;;;;;;5047925;28;20463;-81
2021/07/22 12:27:54;;;;;;;7.43;6.43;;;;;;;;;;5043834;28;20411;-81
2021/07/22 12:30:22;;;;;;;5.93;5.43;;;;;;;;;;5047306;28;20478;-82
2021/07/22 12:32:51;;;;;;;7.23;6.53;;;;;;;;;;5047993;28;20432;-81
2021/07/22 12:35:29;;;;;;;8.50;7.70;;;;;;;;;;5047683;28;20944;-82
2021/07/22 12:38:03;;;;;;;7.37;6.67;;;;;;;;;;5045703;28;20431;-81
2021/07/22 12:40:37;;;;;;;7.67;5.80;;;;;;;;;;5045337;28;20467;-80
2021/07/22 12:43:04;;;;;;;6.90;6.40;;;;;;;;;;5045796;28;20412;-81
2021/07/22 12:45:31;;;;;;;6.83;6.23;;;;;;;;;;5032075;28;20428;-82
2021/07/22 12:47:56;;;;;;;5.93;5.43;;;;;;;;;;5044468;28;20447;-82
2021/07/22 12:50:33;;;;;;;6.40;5.23;;;;;;;;;;5046812;28;20464;-82
2021/07/22 12:53:09;;;;;;;5.83;5.33;;;;;;;;;;5046976;28;20436;-81
2021/07/22 12:55:36;;;;;;;7.03;6.33;;;;;;;;;;5045580;28;20446;-81
2021/07/22 12:58:03;;;;;;;8.10;7.37;;;;;;;;;;5029301;28;20425;-81
2021/07/22 13:00:29;;;;;;;7.87;6.97;;;;;;;;;;5030311;28;20658;-81
2021/07/22 13:02:57;;;;;;;6.73;6.20;;;;;;;;;;5042251;28;20432;-81
2021/07/22 13:05:23;;;;;;;7.57;6.87;;;;;;;;;;5044182;28;20528;-82
2021/07/22 13:07:49;;;;;;;6.80;6.20;;;;;;;;;;5046028;28;20590;-81
2021/07/22 13:10:16;;;;;;;7.17;6.57;;;;;;;;;;5044830;28;20444;-81
2021/07/22 13:12:42;;;;;;;6.70;6.10;;;;;;;;;;5044675;28;20483;-81
2021/07/22 13:15:08;;;;;;;6.20;5.53;;;;;;;;;;5044814;28;20432;-81
2021/07/22 13:17:40;;;;;;;6.23;5.63;;;;;;;;;;5039525;28;20473;-82
2021/07/22 13:20:08;;;;;;;6.57;5.97;;;;;;;;;;5036030;28;20551;-82
2021/07/22 13:22:34;;;;;;;6.17;5.67;;;;;;;;;;5033002;28;20457;-81
2021/07/22 13:25:00;;;;;;;7.30;5.70;;;;;;;;;;5044249;28;20484;-81
2021/07/22 13:27:26;;;;;;;6.27;5.77;;;;;;;;;;5041305;28;20541;-81
2021/07/22 13:29:52;;;;;;;7.17;6.57;;;;;;;;;;5037697;28;20437;-82
2021/07/22 13:32:18;;;;;;;6.30;5.70;;;;;;;;;;5037516;28;20433;-81
2021/07/22 13:34:45;;;;;;;6.27;5.67;;;;;;;;;;5045297;28;20496;-80
2021/07/22 13:37:11;;;;;;;5.97;5.47;;;;;;;;;;5045750;28;20436;-82
2021/07/22 13:39:37;;;;;;;6.10;5.60;;;;;;;;;;5045429;28;20483;-81
2021/07/22 13:42:06;;;;;;;9.37;6.40;;;;;;;;;;5046634;28;20436;-80
2021/07/22 13:44:32;;;;;;;6.90;6.17;;;;;;;;;;5046614;28;20441;-81
2021/07/22 13:46:58;;;;;;;7.27;6.27;;;;;;;;;;5045309;28;20428;-81
2021/07/22 13:49:26;;;;;;;7.77;6.00;;;;;;;;;;5043870;28;20487;-81
2021/07/22 13:51:52;;;;;;;7.30;6.10;;;;;;;;;;5026498;28;20453;-82
2021/07/22 13:54:18;;;;;;;6.50;5.90;;;;;;;;;;5045933;28;20805;-82
2021/07/22 13:56:44;;;;;;;7.03;6.43;;;;;;;;;;5046264;28;20439;-81
2021/07/22 13:59:10;;;;;;;6.43;5.70;;;;;;;;;;5042270;28;20476;-81
2021/07/22 14:01:37;;;;;;;7.33;6.63;;;;;;;;;;5031615;28;20420;-81
2021/07/22 14:04:03;;;;;;;8.07;7.10;;;;;;;;;;5028577;28;20431;-82
2021/07/22 14:06:29;;;;;;;7.27;6.17;;;;;;;;;;5046122;28;20420;-81
2021/07/22 14:08:55;;;;;;;6.87;5.77;;;;;;;;;;5046020;28;20812;-82
2021/07/22 14:11:21;;;;;;;6.90;6.20;;;;;;;;;;5045760;28;20463;-81
2021/07/22 14:13:48;;;;;;;7.53;5.60;;;;;;;;;;5043711;28;20428;-80
2021/07/22 14:16:14;;;;;;;5.80;5.30;;;;;;;;;;5042959;28;20472;-80
2021/07/22 14:18:40;;;;;;;6.70;5.60;;;;;;;;;;5028038;28;20488;-81
2021/07/22 14:21:06;;;;;;;6.00;5.40;;;;;;;;;;5041828;28;20523;-81
2021/07/22 14:23:33;;;;;;;6.90;6.20;;;;;;;;;;5039015;28;20454;-80
2021/07/22 14:26:00;;;;;;;7.30;5.77;;;;;;;;;;5042970;28;20474;-81
2021/07/22 14:28:26;;;;;;;5.80;5.23;;;;;;;;;;5029996;28;20430;-81
2021/07/22 14:30:52;;;;;;;6.83;5.50;;;;;;;;;;5042318;28;20438;-80
2021/07/22 14:33:18;;;;;;;5.90;5.30;;;;;;;;;;5044706;28;20423;-80